sensor_id;sensor_type;location;lat;lon;timestamp;pressure;altitude;pressure_sealevel;temperature;humidity
4123;BME280;2075;51.062;6.920;2023-04-21T00:00:12;-11161.53;;;-144.48;100.00
4123;BME280;2075;51.062;6.920;2023-04-21T00:02:58;-10909.50;;;-144.48;100.00
4123;BME280;2075;51.062;6.920;2023-04-21T00:05:44;-10909.50;;;-144.48;100.00
4123;BME280;2075;51.062;6.920;2023-04-21T00:08:31;-10909.50;;;-144.48;100.00
4123;BME280;2075;51.062;6.920;2023-04-21T00:11:18;-11413.53;;;-144.48;100.00
4123;BME280;2075;51.062;6.920;2023-04-21T00:14:05;-11413.53;;;-144.48;100.00
4123;BME280;2075;51.062;6.920;2023-04-21T00:16:50;-11413.53;;;-144.48;100.00
4123;BME280;2075;51.062;6.920;2023-04-21T00:19:36;-11161.53;;;-144.48;100.00
4123;BME280;2075;51.062;6.920;2023-04-21T00:22:21;-10909.50;;;-144.48;100.00
4123;BME280;2075;51.062;6.920;2023-04-21T00:25:07;-10909.50;;;-144.48;100.00
4123;BME280;2075;51.062;6.920;2023-04-21T00:27:54;-10909.50;;;-144.48;100.00
4123;BME280;2075;51.062;6.920;2023-04-21T00:30:39;-10657.44;;;-144.48;100.00
4123;BME280;2075;51.062;6.920;2023-04-21T00:33:25;-10657.44;;;-144.48;100.00
4123;BME280;2075;51.062;6.920;2023-04-21T00:36:12;-11161.53;;;-144.48;100.00
4123;BME280;2075;51.062;6.920;2023-04-21T00:38:57;-11665.53;;;-144.48;100.00
4123;BME280;2075;51.062;6.920;2023-04-21T00:41:43;-11665.53;;;-144.48;100.00
4123;BME280;2075;51.062;6.920;2023-04-21T00:44:29;-11161.53;;;-144.48;100.00
4123;BME280;2075;51.062;6.920;2023-04-21T00:47:15;-11413.53;;;-144.48;100.00
4123;BME280;2075;51.062;6.920;2023-04-21T00:50:01;-11665.53;;;-144.48;100.00
4123;BME280;2075;51.062;6.920;2023-04-21T00:52:47;-11413.53;;;-144.48;100.00
4123;BME280;2075;51.062;6.920;2023-04-21T00:55:33;-11413.53;;;-144.48;100.00
4123;BME280;2075;51.062;6.920;2023-04-21T00:58:20;-11665.53;;;-144.48;100.00
4123;BME280;2075;51.062;6.920;2023-04-21T01:01:07;-11413.53;;;-144.48;100.00
4123;BME280;2075;51.062;6.920;2023-04-21T01:03:53;-11413.53;;;-144.48;100.00
4123;BME280;2075;51.062;6.920;2023-04-21T01:06:39;-11413.53;;;-144.48;100.00
4123;BME280;2075;51.062;6.920;2023-04-21T01:09:26;-11665.53;;;-144.48;100.00
4123;BME280;2075;51.062;6.920;2023-04-21T01:12:11;-11413.53;;;-144.48;100.00
4123;BME280;2075;51.062;6.920;2023-04-21T01:14:57;-11413.53;;;-144.48;100.00
4123;BME280;2075;51.062;6.920;2023-04-21T01:17:43;-11665.53;;;-144.48;100.00
4123;BME280;2075;51.062;6.920;2023-04-21T01:20:30;-11665.53;;;-144.48;100.00
4123;BME280;2075;51.062;6.920;2023-04-21T01:23:17;-11667.00;;;-144.48;100.00
4123;BME280;2075;51.062;6.920;2023-04-21T01:26:04;-11665.53;;;-144.48;100.00
4123;BME280;2075;51.062;6.920;2023-04-21T01:28:55;-11413.53;;;-144.48;100.00
4123;BME280;2075;51.062;6.920;2023-04-21T01:31:41;-11413.53;;;-144.48;100.00
4123;BME280;2075;51.062;6.920;2023-04-21T01:34:28;-10909.50;;;-144.48;100.00
4123;BME280;2075;51.062;6.920;2023-04-21T01:37:16;-10909.50;;;-144.48;100.00
4123;BME280;2075;51.062;6.920;2023-04-21T01:40:05;-10909.50;;;-144.48;100.00
4123;BME280;2075;51.062;6.920;2023-04-21T01:42:52;-11161.53;;;-144.48;100.00
4123;BME280;2075;51.062;6.920;2023-04-21T01:45:37;-11413.53;;;-144.48;100.00
4123;BME280;2075;51.062;6.920;2023-04-21T01:48:22;-11161.53;;;-144.48;100.00
4123;BME280;2075;51.062;6.920;2023-04-21T01:51:08;-10909.50;;;-144.48;100.00
4123;BME280;2075;51.062;6.920;2023-04-21T01:53:53;-10405.38;;;-144.48;100.00
4123;BME280;2075;51.062;6.920;2023-04-21T01:56:40;-10405.38;;;-144.48;100.00
4123;BME280;2075;51.062;6.920;2023-04-21T01:59:25;-10153.28;;;-144.48;100.00
4123;BME280;2075;51.062;6.920;2023-04-21T02:02:11;-10153.28;;;-144.48;100.00
4123;BME280;2075;51.062;6.920;2023-04-21T02:04:56;-9901.19;;;-144.48;100.00
4123;BME280;2075;51.062;6.920;2023-04-21T02:07:42;-9396.91;;;-144.48;100.00
4123;BME280;2075;51.062;6.920;2023-04-21T02:10:27;-8892.53;;;-144.48;100.00
4123;BME280;2075;51.062;6.920;2023-04-21T02:13:14;-8388.09;;;-144.48;100.00
4123;BME280;2075;51.062;6.920;2023-04-21T02:15:59;-8640.34;;;-144.48;100.00
4123;BME280;2075;51.062;6.920;2023-04-21T02:18:45;-8892.53;;;-144.48;100.00
4123;BME280;2075;51.062;6.920;2023-04-21T02:21:31;-8640.34;;;-144.48;100.00
4123;BME280;2075;51.062;6.920;2023-04-21T02:24:16;-8640.34;;;-144.48;100.00
4123;BME280;2075;51.062;6.920;2023-04-21T02:27:03;-8640.34;;;-144.48;100.00
4123;BME280;2075;51.062;6.920;2023-04-21T02:29:50;-9144.72;;;-144.48;100.00
4123;BME280;2075;51.062;6.920;2023-04-21T02:32:35;-9396.91;;;-144.48;100.00
4123;BME280;2075;51.062;6.920;2023-04-21T02:35:22;-9396.91;;;-144.48;100.00
4123;BME280;2075;51.062;6.920;2023-04-21T02:38:07;-9649.03;;;-144.48;100.00
4123;BME280;2075;51.062;6.920;2023-04-21T02:40:53;-9901.19;;;-144.48;100.00
4123;BME280;2075;51.062;6.920;2023-04-21T02:43:39;-9901.19;;;-144.48;100.00
4123;BME280;2075;51.062;6.920;2023-04-21T02:46:26;-10153.28;;;-144.48;100.00
4123;BME280;2075;51.062;6.920;2023-04-21T02:49:11;-10657.44;;;-144.48;100.00
4123;BME280;2075;51.062;6.920;2023-04-21T02:51:57;-10657.44;;;-144.48;100.00
4123;BME280;2075;51.062;6.920;2023-04-21T02:54:42;-10405.38;;;-144.48;100.00
4123;BME280;2075;51.062;6.920;2023-04-21T02:57:28;-10153.28;;;-144.48;100.00
4123;BME280;2075;51.062;6.920;2023-04-21T03:00:14;-9901.19;;;-144.48;100.00
4123;BME280;2075;51.062;6.920;2023-04-21T03:03:00;-9901.19;;;-144.48;100.00
4123;BME280;2075;51.062;6.920;2023-04-21T03:05:46;-10405.38;;;-144.48;100.00
4123;BME280;2075;51.062;6.920;2023-04-21T03:08:31;-10909.50;;;-144.48;100.00
4123;BME280;2075;51.062;6.920;2023-04-21T03:11:16;-11413.53;;;-144.48;100.00
4123;BME280;2075;51.062;6.920;2023-04-21T03:14:02;-11665.53;;;-144.48;100.00
4123;BME280;2075;51.062;6.920;2023-04-21T03:16:48;-11665.53;;;-144.48;100.00
4123;BME280;2075;51.062;6.920;2023-04-21T03:19:35;-11667.00;;;-144.48;100.00
4123;BME280;2075;51.062;6.920;2023-04-21T03:22:20;-11667.00;;;-144.48;100.00
4123;BME280;2075;51.062;6.920;2023-04-21T03:25:05;-11667.00;;;-144.48;100.00
4123;BME280;2075;51.062;6.920;2023-04-21T03:27:51;-11667.00;;;-144.48;100.00
4123;BME280;2075;51.062;6.920;2023-04-21T03:30:36;-11667.00;;;-144.48;100.00
4123;BME280;2075;51.062;6.920;2023-04-21T03:33:22;-11667.00;;;-144.48;100.00
4123;BME280;2075;51.062;6.920;2023-04-21T03:36:09;-11667.00;;;-144.48;100.00
4123;BME280;2075;51.062;6.920;2023-04-21T03:38:55;-11667.00;;;-144.48;100.00
4123;BME280;2075;51.062;6.920;2023-04-21T03:41:41;-11667.00;;;-144.48;100.00
4123;BME280;2075;51.062;6.920;2023-04-21T03:44:27;-11667.00;;;-144.48;100.00
4123;BME280;2075;51.062;6.920;2023-04-21T03:47:12;-11667.00;;;-144.48;100.00
4123;BME280;2075;51.062;6.920;2023-04-21T03:49:58;-11667.00;;;-144.48;100.00
4123;BME280;2075;51.062;6.920;2023-04-21T03:52:44;-11667.00;;;-144.48;100.00
4123;BME280;2075;51.062;6.920;2023-04-21T03:55:30;-11667.00;;;-144.48;100.00
4123;BME280;2075;51.062;6.920;2023-04-21T03:58:15;-11667.00;;;-144.48;100.00
4123;BME280;2075;51.062;6.920;2023-04-21T04:01:03;-11667.00;;;-144.48;100.00
4123;BME280;2075;51.062;6.920;2023-04-21T04:03:48;-11667.00;;;-144.48;100.00
4123;BME280;2075;51.062;6.920;2023-04-21T04:06:34;-11667.00;;;-144.48;100.00
4123;BME280;2075;51.062;6.920;2023-04-21T04:09:21;-11667.00;;;-144.48;100.00
4123;BME280;2075;51.062;6.920;2023-04-21T04:12:06;-11667.00;;;-144.48;100.00
4123;BME280;2075;51.062;6.920;2023-04-21T04:14:51;-11667.00;;;-144.48;100.00
4123;BME280;2075;51.062;6.920;2023-04-21T04:17:37;-11667.00;;;-144.48;100.00
4123;BME280;2075;51.062;6.920;2023-04-21T04:20:22;-11667.00;;;-144.48;100.00
4123;BME280;2075;51.062;6.920;2023-04-21T04:23:08;-11667.00;;;-144.48;100.00
4123;BME280;2075;51.062;6.920;2023-04-21T04:25:54;-11667.00;;;-144.48;100.00
4123;BME280;2075;51.062;6.920;2023-04-21T04:28:40;-11667.00;;;-144.48;100.00
4123;BME280;2075;51.062;6.920;2023-04-21T04:31:25;-11667.00;;;-144.48;100.00
4123;BME280;2075;51.062;6.920;2023-04-21T04:34:12;-11667.00;;;-144.48;100.00
4123;BME280;2075;51.062;6.920;2023-04-21T04:37:00;-11667.00;;;-144.48;100.00
4123;BME280;2075;51.062;6.920;2023-04-21T04:39:46;-11667.00;;;-144.48;100.00
4123;BME280;2075;51.062;6.920;2023-04-21T04:42:34;-11667.00;;;-144.48;100.00
4123;BME280;2075;51.062;6.920;2023-04-21T04:45:20;-11667.00;;;-144.48;100.00
4123;BME280;2075;51.062;6.920;2023-04-21T04:48:06;-11667.00;;;-144.48;100.00
4123;BME280;2075;51.062;6.920;2023-04-21T04:50:51;-11667.00;;;-144.48;100.00
4123;BME280;2075;51.062;6.920;2023-04-21T04:53:36;-11667.00;;;-144.48;100.00
4123;BME280;2075;51.062;6.920;2023-04-21T04:56:22;-11667.00;;;-144.48;100.00
4123;BME280;2075;51.062;6.920;2023-04-21T04:59:09;-11667.00;;;-144.48;100.00
4123;BME280;2075;51.062;6.920;2023-04-21T05:01:54;-11667.00;;;-144.48;100.00
4123;BME280;2075;51.062;6.920;2023-04-21T05:04:40;-11667.00;;;-144.48;100.00
4123;BME280;2075;51.062;6.920;2023-04-21T05:07:25;-11667.00;;;-144.48;100.00
4123;BME280;2075;51.062;6.920;2023-04-21T05:10:11;-11667.00;;;-144.48;100.00
4123;BME280;2075;51.062;6.920;2023-04-21T05:12:56;-11667.00;;;-144.48;100.00
4123;BME280;2075;51.062;6.920;2023-04-21T05:15:43;-11667.00;;;-144.48;100.00
4123;BME280;2075;51.062;6.920;2023-04-21T05:18:28;-11667.00;;;-144.48;100.00
4123;BME280;2075;51.062;6.920;2023-04-21T05:21:21;-11667.00;;;-144.48;100.00
4123;BME280;2075;51.062;6.920;2023-04-21T05:24:07;-11161.53;;;-144.48;100.00
4123;BME280;2075;51.062;6.920;2023-04-21T05:26:52;-7631.31;;;-144.48;100.00
4123;BME280;2075;51.062;6.920;2023-04-21T05:29:38;-5359.88;;;-144.48;100.00
4123;BME280;2075;51.062;6.920;2023-04-21T05:32:25;-3844.69;;;-144.48;100.00
4123;BME280;2075;51.062;6.920;2023-04-21T05:35:10;-2076.13;;;-144.48;100.00
4123;BME280;2075;51.062;6.920;2023-04-21T05:37:55;-1570.63;;;-144.48;100.00
4123;BME280;2075;51.062;6.920;2023-04-21T05:40:41;452.09;;;-144.48;100.00
4123;BME280;2075;51.062;6.920;2023-04-21T05:43:26;8048.44;;;-144.48;100.00
4123;BME280;2075;51.062;6.920;2023-04-21T05:46:12;6274.38;;;-144.48;100.00
4123;BME280;2075;51.062;6.920;2023-04-21T05:48:58;6274.38;;;-144.48;100.00
4123;BME280;2075;51.062;6.920;2023-04-21T05:51:45;7034.56;;;-144.48;100.00
4123;BME280;2075;51.062;6.920;2023-04-21T05:57:17;5767.69;;;-144.48;100.00
4123;BME280;2075;51.062;6.920;2023-04-21T06:00:03;7034.56;;;-144.48;100.00
4123;BME280;2075;51.062;6.920;2023-04-21T06:02:49;9062.59;;;-144.48;100.00
4123;BME280;2075;51.062;6.920;2023-04-21T06:05:36;16933.00;;;-144.48;100.00
4123;BME280;2075;51.062;6.920;2023-04-21T06:08:21;23803.16;;;-144.48;100.00
4123;BME280;2075;51.062;6.920;2023-04-21T06:11:07;29666.69;;;-144.48;100.00
4123;BME280;2075;51.062;6.920;2023-04-21T06:13:52;37330.31;;;-144.48;100.00
4123;BME280;2075;51.062;6.920;2023-04-21T06:16:41;49628.63;;;-144.48;100.00
4123;BME280;2075;51.062;6.920;2023-04-21T06:19:26;83901.44;;;-144.48;100.00
4123;BME280;2075;51.062;6.920;2023-04-21T06:22:13;89190.22;;;-144.48;100.00
4123;BME280;2075;51.062;6.920;2023-04-21T06:24:58;89754.22;;;-144.48;100.00
4123;BME280;2075;51.062;6.920;2023-04-21T06:27:44;92380.78;;;-144.48;100.00
4123;BME280;2075;51.062;6.920;2023-04-21T06:30:29;93105.75;;;-144.48;100.00
4123;BME280;2075;51.062;6.920;2023-04-21T06:33:15;93644.00;;;-144.48;95.55
4123;BME280;2075;51.062;6.920;2023-04-21T06:36:00;93711.03;;;-144.48;88.51
4123;BME280;2075;51.062;6.920;2023-04-21T06:38:47;93666.34;;;-144.48;80.48
4123;BME280;2075;51.062;6.920;2023-04-21T06:41:32;93711.03;;;-144.48;72.48
4123;BME280;2075;51.062;6.920;2023-04-21T06:44:18;93751.66;;;-144.48;73.09
4123;BME280;2075;51.062;6.920;2023-04-21T06:47:03;93664.31;;;-144.48;70.54
4123;BME280;2075;51.062;6.920;2023-04-21T06:49:49;93686.66;;;-144.48;67.68
4123;BME280;2075;51.062;6.920;2023-04-21T06:52:35;93771.97;;;-144.48;68.61
4123;BME280;2075;51.062;6.920;2023-04-21T06:55:22;93721.19;;;-144.48;67.94
4123;BME280;2075;51.062;6.920;2023-04-21T06:58:07;93576.97;;;-144.48;58.82
4123;BME280;2075;51.062;6.920;2023-04-21T07:00:52;93676.50;;;-144.48;58.41
4123;BME280;2075;51.062;6.920;2023-04-21T07:03:38;93755.72;;;-144.48;62.39
4123;BME280;2075;51.062;6.920;2023-04-21T07:06:24;93839.00;;;-144.48;64.09
4123;BME280;2075;51.062;6.920;2023-04-21T07:09:10;93824.78;;;-144.48;66.72
4123;BME280;2075;51.062;6.920;2023-04-21T07:12:05;93696.81;;;-144.48;60.09
4123;BME280;2075;51.062;6.920;2023-04-21T07:14:51;93790.25;;;-144.48;61.76
4123;BME280;2075;51.062;6.920;2023-04-21T07:17:37;93832.91;;;-144.48;65.94
4123;BME280;2075;51.062;6.920;2023-04-21T07:20:22;93794.31;;;-144.48;64.56
4123;BME280;2075;51.062;6.920;2023-04-21T07:23:08;93684.63;;;-144.48;60.46
4123;BME280;2075;51.062;6.920;2023-04-21T07:25:54;93682.59;;;-144.48;60.62
4123;BME280;2075;51.062;6.920;2023-04-21T07:28:44;93601.34;;;-144.48;57.35
4123;BME280;2075;51.062;6.920;2023-04-21T07:31:29;93345.41;;;-144.48;52.95
4123;BME280;2075;51.062;6.920;2023-04-21T07:34:14;93375.88;;;-144.48;50.16
4123;BME280;2075;51.062;6.920;2023-04-21T07:37:00;93339.31;;;-144.48;48.85
4123;BME280;2075;51.062;6.920;2023-04-21T07:39:46;93351.50;;;-144.48;48.61
4123;BME280;2075;51.062;6.920;2023-04-21T07:42:31;93323.06;;;-144.48;47.24
4123;BME280;2075;51.062;6.920;2023-04-21T07:45:18;93493.69;;;-144.48;50.06
4123;BME280;2075;51.062;6.920;2023-04-21T07:48:04;93603.38;;;-144.48;53.48
4123;BME280;2075;51.062;6.920;2023-04-21T07:50:50;93522.13;;;-144.48;51.85
4123;BME280;2075;51.062;6.920;2023-04-21T07:53:37;93314.94;;;-144.48;47.85
4123;BME280;2075;51.062;6.920;2023-04-21T07:59:12;93696.81;;;-144.48;56.79
4123;BME280;2075;51.062;6.920;2023-04-21T08:02:03;93652.13;;;-144.48;58.35
4123;BME280;2075;51.062;6.920;2023-04-21T08:04:48;93201.22;;;-144.48;46.90
4123;BME280;2075;51.062;6.920;2023-04-21T08:07:34;92721.91;;;-144.48;40.34
4123;BME280;2075;51.062;6.920;2023-04-21T08:10:20;92594.00;;;-144.48;38.55
4123;BME280;2075;51.062;6.920;2023-04-21T08:13:07;92216.31;;;-144.48;37.15
4123;BME280;2075;51.062;6.920;2023-04-21T08:15:56;92650.84;;;-144.48;41.39
4123;BME280;2075;51.062;6.920;2023-04-21T08:18:44;93446.97;;;-144.48;47.29
4123;BME280;2075;51.062;6.920;2023-04-21T08:21:30;93672.44;;;-144.48;54.78
4123;BME280;2075;51.062;6.920;2023-04-21T08:24:17;93753.69;;;-144.48;60.25
4123;BME280;2075;51.062;6.920;2023-04-21T08:27:02;93745.56;;;-144.48;60.44
4123;BME280;2075;51.062;6.920;2023-04-21T08:29:48;93725.25;;;-144.48;60.67
4123;BME280;2075;51.062;6.920;2023-04-21T08:32:34;93753.69;;;-144.48;61.82
4123;BME280;2075;51.062;6.920;2023-04-21T08:35:21;93774.00;;;-144.48;63.88
4123;BME280;2075;51.062;6.920;2023-04-21T08:38:08;93751.66;;;-144.48;63.73
4123;BME280;2075;51.062;6.920;2023-04-21T08:40:54;93652.13;;;-144.48;64.00
4123;BME280;2075;51.062;6.920;2023-04-21T08:43:43;93672.44;;;-144.48;62.03
4123;BME280;2075;51.062;6.920;2023-04-21T08:46:29;93619.63;;;-144.48;58.76
4123;BME280;2075;51.062;6.920;2023-04-21T08:49:16;93652.13;;;-144.48;59.00
4123;BME280;2075;51.062;6.920;2023-04-21T08:52:04;93587.13;;;-144.48;57.96
4123;BME280;2075;51.062;6.920;2023-04-21T08:54:50;93526.19;;;-144.48;52.59
4123;BME280;2075;51.062;6.920;2023-04-21T08:57:36;93601.34;;;-144.48;54.57
4123;BME280;2075;51.062;6.920;2023-04-21T09:00:22;93639.94;;;-144.48;59.32
4123;BME280;2075;51.062;6.920;2023-04-21T09:03:08;93672.44;;;-144.48;62.38
4123;BME280;2075;51.062;6.920;2023-04-21T09:05:57;93690.72;;;-144.48;60.37
4123;BME280;2075;51.062;6.920;2023-04-21T09:08:52;93753.69;;;-144.48;62.77
4123;BME280;2075;51.062;6.920;2023-04-21T09:11:39;93658.22;;;-144.48;62.12
4123;BME280;2075;51.062;6.920;2023-04-21T09:14:30;93794.31;;;-144.48;64.52
4123;BME280;2075;51.062;6.920;2023-04-21T09:17:20;93790.25;;;-144.48;69.28
4123;BME280;2075;51.062;6.920;2023-04-21T09:20:15;93769.94;;;-144.48;67.75
4123;BME280;2075;51.062;6.920;2023-04-21T09:23:03;93656.19;;;-144.48;63.95
4123;BME280;2075;51.062;6.920;2023-04-21T09:25:53;93483.53;;;-144.48;59.46
4123;BME280;2075;51.062;6.920;2023-04-21T09:28:42;93444.94;;;-144.48;57.95
4123;BME280;2075;51.062;6.920;2023-04-21T09:31:34;93323.06;;;-144.48;55.77
4123;BME280;2075;51.062;6.920;2023-04-21T09:34:21;93518.06;;;-144.48;54.56
4123;BME280;2075;51.062;6.920;2023-04-21T09:37:10;93611.50;;;-144.48;60.04
4123;BME280;2075;51.062;6.920;2023-04-21T09:39:58;93639.94;;;-144.48;62.27
4123;BME280;2075;51.062;6.920;2023-04-21T09:42:45;93818.69;;;-144.48;61.09
4123;BME280;2075;51.062;6.920;2023-04-21T09:45:33;93390.09;;;-144.48;55.77
4123;BME280;2075;51.062;6.920;2023-04-21T09:48:21;93465.25;;;-144.48;57.14
4123;BME280;2075;51.062;6.920;2023-04-21T09:51:10;93479.47;;;-144.48;58.07
4123;BME280;2075;51.062;6.920;2023-04-21T09:53:58;93343.38;;;-144.48;55.53
4123;BME280;2075;51.062;6.920;2023-04-21T09:56:49;93526.19;;;-144.48;56.66
4123;BME280;2075;51.062;6.920;2023-04-21T09:59:44;93475.41;;;-144.48;56.48
4123;BME280;2075;51.062;6.920;2023-04-21T10:02:30;93461.19;;;-144.48;56.38
4123;BME280;2075;51.062;6.920;2023-04-21T10:05:16;93465.25;;;-144.48;56.06
4123;BME280;2075;51.062;6.920;2023-04-21T10:08:01;93180.91;;;-144.48;52.22
4123;BME280;2075;51.062;6.920;2023-04-21T10:10:50;93219.50;;;-144.48;51.73
4123;BME280;2075;51.062;6.920;2023-04-21T10:13:41;93180.91;;;-144.48;51.23
4123;BME280;2075;51.062;6.920;2023-04-21T10:16:28;93050.91;;;-144.48;46.58
4123;BME280;2075;51.062;6.920;2023-04-21T10:19:24;93191.06;;;-144.48;49.41
4123;BME280;2075;51.062;6.920;2023-04-21T10:22:10;93152.47;;;-144.48;50.12
4123;BME280;2075;51.062;6.920;2023-04-21T10:24:57;92957.50;;;-144.48;46.04
4123;BME280;2075;51.062;6.920;2023-04-21T10:27:44;92855.94;;;-144.48;43.78
4123;BME280;2075;51.062;6.920;2023-04-21T10:30:30;93059.03;;;-144.48;44.79
4123;BME280;2075;51.062;6.920;2023-04-21T10:33:22;93302.75;;;-144.48;48.13
4123;BME280;2075;51.062;6.920;2023-04-21T10:36:11;93355.56;;;-144.48;50.77
4123;BME280;2075;51.062;6.920;2023-04-21T10:39:00;93262.16;;;-144.48;48.93
4123;BME280;2075;51.062;6.920;2023-04-21T10:41:50;93369.78;;;-144.48;51.14
4123;BME280;2075;51.062;6.920;2023-04-21T10:44:43;93467.28;;;-144.48;53.88
4123;BME280;2075;51.062;6.920;2023-04-21T10:47:35;93473.38;;;-144.48;54.59
4123;BME280;2075;51.062;6.920;2023-04-21T10:50:38;93424.63;;;-144.48;52.99
4123;BME280;2075;51.062;6.920;2023-04-21T10:53:42;93475.41;;;-144.48;52.52
4123;BME280;2075;51.062;6.920;2023-04-21T10:56:29;93434.78;;;-144.48;53.65
4123;BME280;2075;51.062;6.920;2023-04-21T10:59:19;93199.19;;;-144.48;52.27
4123;BME280;2075;51.062;6.920;2023-04-21T11:02:13;93197.16;;;-144.48;50.38
4123;BME280;2075;51.062;6.920;2023-04-21T11:05:04;93203.25;;;-144.48;47.82
4123;BME280;2075;51.062;6.920;2023-04-21T11:08:01;93233.72;;;-144.48;50.07
4123;BME280;2075;51.062;6.920;2023-04-21T11:10:50;93235.75;;;-144.48;48.40
4123;BME280;2075;51.062;6.920;2023-04-21T11:13:36;93221.53;;;-144.48;48.70
4123;BME280;2075;51.062;6.920;2023-04-21T11:16:26;93178.88;;;-144.48;47.82
4123;BME280;2075;51.062;6.920;2023-04-21T11:19:14;93343.38;;;-144.48;47.45
4123;BME280;2075;51.062;6.920;2023-04-21T11:22:04;93331.19;;;-144.48;46.76
4123;BME280;2075;51.062;6.920;2023-04-21T11:24:54;93475.41;;;-144.48;48.54
4123;BME280;2075;51.062;6.920;2023-04-21T11:27:41;93408.38;;;-144.48;48.50
4123;BME280;2075;51.062;6.920;2023-04-21T11:30:34;93497.75;;;-144.48;48.82
4123;BME280;2075;51.062;6.920;2023-04-21T11:33:22;93627.75;;;-144.48;49.12
4123;BME280;2075;51.062;6.920;2023-04-21T11:36:08;93347.44;;;-144.48;48.12
4123;BME280;2075;51.062;6.920;2023-04-21T11:38:54;93341.34;;;-144.48;46.44
4123;BME280;2075;51.062;6.920;2023-04-21T11:41:43;93189.03;;;-144.48;45.90
4123;BME280;2075;51.062;6.920;2023-04-21T11:44:33;93375.88;;;-144.48;46.62
4123;BME280;2075;51.062;6.920;2023-04-21T11:47:21;93384.00;;;-144.48;45.86
4123;BME280;2075;51.062;6.920;2023-04-21T11:50:08;93365.72;;;-144.48;46.42
4123;BME280;2075;51.062;6.920;2023-04-21T11:52:54;93327.13;;;-144.48;46.53
4123;BME280;2075;51.062;6.920;2023-04-21T11:55:49;93219.50;;;-144.48;47.56
4123;BME280;2075;51.062;6.920;2023-04-21T11:58:38;93629.78;;;-144.48;47.98
4123;BME280;2075;51.062;6.920;2023-04-21T12:01:26;93396.19;;;-144.48;48.78
4123;BME280;2075;51.062;6.920;2023-04-21T12:04:16;93465.25;;;-144.48;49.22
4123;BME280;2075;51.062;6.920;2023-04-21T12:07:02;93461.19;;;-144.48;48.28
4123;BME280;2075;51.062;6.920;2023-04-21T12:09:50;93359.63;;;-144.48;46.15
4123;BME280;2075;51.062;6.920;2023-04-21T12:12:37;93306.81;;;-144.48;45.48
4123;BME280;2075;51.062;6.920;2023-04-21T12:15:43;93300.72;;;-144.48;46.35
4123;BME280;2075;51.062;6.920;2023-04-21T12:18:41;93148.41;;;-144.48;46.23
4123;BME280;2075;51.062;6.920;2023-04-21T12:21:31;93223.56;;;-144.48;45.11
4123;BME280;2075;51.062;6.920;2023-04-21T12:24:20;93156.53;;;-144.48;44.93
4123;BME280;2075;51.062;6.920;2023-04-21T12:27:12;93276.38;;;-144.48;45.82
4123;BME280;2075;51.062;6.920;2023-04-21T12:30:00;93327.13;;;-144.48;46.56
4123;BME280;2075;51.062;6.920;2023-04-21T12:32:47;93321.03;;;-144.48;47.29
4123;BME280;2075;51.062;6.920;2023-04-21T12:35:35;93331.19;;;-144.48;47.58
4123;BME280;2075;51.062;6.920;2023-04-21T12:38:20;93284.50;;;-144.48;47.18
4123;BME280;2075;51.062;6.920;2023-04-21T12:41:06;93302.75;;;-144.48;47.13
4123;BME280;2075;51.062;6.920;2023-04-21T12:43:53;93284.50;;;-144.48;46.27
4123;BME280;2075;51.062;6.920;2023-04-21T12:46:39;93298.69;;;-144.48;45.48
4123;BME280;2075;51.062;6.920;2023-04-21T12:49:27;93325.09;;;-144.48;46.53
4123;BME280;2075;51.062;6.920;2023-04-21T12:52:12;93227.63;;;-144.48;45.51
4123;BME280;2075;51.062;6.920;2023-04-21T12:54:58;93294.63;;;-144.48;45.47
4123;BME280;2075;51.062;6.920;2023-04-21T12:57:44;93314.94;;;-144.48;44.91
4123;BME280;2075;51.062;6.920;2023-04-21T13:00:30;93296.66;;;-144.48;46.21
4123;BME280;2075;51.062;6.920;2023-04-21T13:03:18;93249.97;;;-144.48;45.95
4123;BME280;2075;51.062;6.920;2023-04-21T13:06:06;93518.06;;;-144.48;45.68
4123;BME280;2075;51.062;6.920;2023-04-21T13:14:08;93197.16;;;-144.48;47.89
4123;BME280;2075;51.062;6.920;2023-04-21T13:16:55;93400.25;;;-144.48;46.50
4123;BME280;2075;51.062;6.920;2023-04-21T13:19:41;93446.97;;;-144.48;48.01
4123;BME280;2075;51.062;6.920;2023-04-21T13:22:28;93444.94;;;-144.48;46.75
4123;BME280;2075;51.062;6.920;2023-04-21T13:25:14;93473.38;;;-144.48;47.08
4123;BME280;2075;51.062;6.920;2023-04-21T13:27:59;93436.81;;;-144.48;45.76
4123;BME280;2075;51.062;6.920;2023-04-21T13:30:45;93471.34;;;-144.48;46.47
4123;BME280;2075;51.062;6.920;2023-04-21T13:33:31;93505.88;;;-144.48;45.68
4123;BME280;2075;51.062;6.920;2023-04-21T13:36:18;93481.50;;;-144.48;46.46
4123;BME280;2075;51.062;6.920;2023-04-21T13:39:08;93459.16;;;-144.48;47.38
4123;BME280;2075;51.062;6.920;2023-04-21T13:41:54;93384.00;;;-144.48;47.88
4123;BME280;2075;51.062;6.920;2023-04-21T13:44:40;93467.28;;;-144.48;48.16
4123;BME280;2075;51.062;6.920;2023-04-21T13:47:25;93428.69;;;-144.48;48.08
4123;BME280;2075;51.062;6.920;2023-04-21T13:50:10;93404.31;;;-144.48;47.98
4123;BME280;2075;51.062;6.920;2023-04-21T13:53:00;93446.97;;;-144.48;47.91
4123;BME280;2075;51.062;6.920;2023-04-21T13:55:49;93388.06;;;-144.48;46.64
4123;BME280;2075;51.062;6.920;2023-04-21T13:58:38;93396.19;;;-144.48;47.28
4123;BME280;2075;51.062;6.920;2023-04-21T14:01:24;93446.97;;;-144.48;46.82
4123;BME280;2075;51.062;6.920;2023-04-21T14:09:48;93095.59;;;-144.48;44.34
4123;BME280;2075;51.062;6.920;2023-04-21T14:12:36;93304.78;;;-144.48;43.41
4123;BME280;2075;51.062;6.920;2023-04-21T14:15:21;93390.09;;;-144.48;44.48
4123;BME280;2075;51.062;6.920;2023-04-21T14:18:07;93331.19;;;-144.48;44.34
4123;BME280;2075;51.062;6.920;2023-04-21T14:20:52;93270.25;;;-144.48;44.91
4123;BME280;2075;51.062;6.920;2023-04-21T14:23:38;93355.56;;;-144.48;44.61
4123;BME280;2075;51.062;6.920;2023-04-21T14:26:23;93298.69;;;-144.48;44.11
4123;BME280;2075;51.062;6.920;2023-04-21T14:29:12;93266.22;;;-144.48;43.63
4123;BME280;2075;51.062;6.920;2023-04-21T14:31:58;93231.69;;;-144.48;41.98
4123;BME280;2075;51.062;6.920;2023-04-21T14:34:44;93199.19;;;-144.48;42.29
4123;BME280;2075;51.062;6.920;2023-04-21T14:37:29;93168.72;;;-144.48;42.22
4123;BME280;2075;51.062;6.920;2023-04-21T14:40:16;93140.28;;;-144.48;41.80
4123;BME280;2075;51.062;6.920;2023-04-21T14:43:02;93182.94;;;-144.48;41.90
4123;BME280;2075;51.062;6.920;2023-04-21T14:45:49;93142.31;;;-144.48;41.77
4123;BME280;2075;51.062;6.920;2023-04-21T14:48:35;93184.97;;;-144.48;41.94
4123;BME280;2075;51.062;6.920;2023-04-21T14:51:20;93237.78;;;-144.48;41.58